createdAt,value
2022-12-15T00:00:18.920Z,62.43
2022-12-15T00:05:39.635Z,56.90
2022-12-15T00:11:00.605Z,52.67
2022-12-15T00:16:22.141Z,50.97
2022-12-15T00:21:43.235Z,51.73
2022-12-15T00:27:04.193Z,57.37
2022-12-15T00:32:25.349Z,59.83
2022-12-15T00:37:46.983Z,57.10
2022-12-15T00:42:49.763Z,58.07
2022-12-15T00:47:52.256Z,55.67
2022-12-15T00:53:13.131Z,60.70
2022-12-15T00:58:33.942Z,67.77
2022-12-15T01:03:54.765Z,58.57
2022-12-15T01:09:15.721Z,58.77
2022-12-15T01:14:36.474Z,57.87
2022-12-15T01:19:57.311Z,52.80
2022-12-15T01:24:59.704Z,49.83
2022-12-15T01:30:02.798Z,71.70
2022-12-15T01:35:06.480Z,68.53
2022-12-15T01:40:32.739Z,72.63
2022-12-15T01:45:48.028Z,90.70
2022-12-15T01:51:25.269Z,82.27
2022-12-15T01:56:35.390Z,71.40
2022-12-15T02:01:40.425Z,73.20
2022-12-15T02:06:45.861Z,69.73
2022-12-15T02:12:15.523Z,62.80
2022-12-15T02:17:42.083Z,64.87
2022-12-15T02:23:02.444Z,59.80
2022-12-15T02:28:21.598Z,57.03
2022-12-15T02:33:30.122Z,61.37
2022-12-15T02:38:39.339Z,62.60
2022-12-15T02:43:42.011Z,63.00
2022-12-15T02:49:30.825Z,65.37
2022-12-15T02:55:15.763Z,64.83
2022-12-15T03:00:18.975Z,63.70
2022-12-15T03:05:24.300Z,61.03
2022-12-15T03:10:27.052Z,60.40
2022-12-15T03:15:35.086Z,61.57
2022-12-15T03:20:38.085Z,58.63
2022-12-15T03:25:40.442Z,64.27
2022-12-15T03:30:42.834Z,66.00
2022-12-15T03:35:45.279Z,71.37
2022-12-15T03:40:47.755Z,65.80
2022-12-15T03:45:50.832Z,63.47
2022-12-15T03:50:54.011Z,68.33
2022-12-15T03:55:56.416Z,67.10
2022-12-15T04:00:58.907Z,57.43
2022-12-15T04:06:01.379Z,60.47
2022-12-15T04:11:03.742Z,66.13
2022-12-15T04:16:06.517Z,64.83
2022-12-15T04:21:09.090Z,56.50
2022-12-15T04:26:29.896Z,61.60
2022-12-15T04:31:52.809Z,63.07
2022-12-15T04:37:14.207Z,58.47
2022-12-15T04:42:35.132Z,52.77
2022-12-15T04:47:56.278Z,54.80
2022-12-15T04:53:33.780Z,54.63
2022-12-15T04:58:55.180Z,53.63
2022-12-15T05:04:15.995Z,57.73
2022-12-15T05:09:36.881Z,57.50
2022-12-15T05:14:57.856Z,50.83
2022-12-15T05:20:18.795Z,53.30
2022-12-15T05:25:39.579Z,50.50
2022-12-15T05:31:00.398Z,70.03
2022-12-15T05:36:03.075Z,63.73
2022-12-15T05:41:05.601Z,91.57
2022-12-15T05:46:08.093Z,78.00
2022-12-15T05:51:12.518Z,64.23
2022-12-15T05:56:15.670Z,65.47
2022-12-15T06:01:19.318Z,66.97
2022-12-15T06:06:21.826Z,60.60
2022-12-15T06:11:24.365Z,63.57
2022-12-15T06:16:28.319Z,57.80
2022-12-15T06:21:35.550Z,55.93
2022-12-15T06:26:39.791Z,55.30
2022-12-15T06:31:42.843Z,55.93
2022-12-15T06:36:46.154Z,73.07
2022-12-15T06:41:48.584Z,71.50
2022-12-15T06:46:53.870Z,98.53
2022-12-15T06:51:56.645Z,140.53
2022-12-15T06:56:59.099Z,115.80
2022-12-15T07:02:01.907Z,110.53
2022-12-15T07:07:04.446Z,123.73
2022-12-15T07:12:07.747Z,125.90
2022-12-15T07:17:13.420Z,97.87
2022-12-15T07:22:16.010Z,114.53
2022-12-15T07:27:18.451Z,107.93
2022-12-15T07:32:21.082Z,171.03
2022-12-15T07:37:23.592Z,171.00
2022-12-15T07:42:28.829Z,244.67
2022-12-15T07:47:32.161Z,191.90
2022-12-15T07:52:35.067Z,110.67
2022-12-15T07:57:37.529Z,92.43
2022-12-15T08:02:41.864Z,92.37
2022-12-15T08:07:45.984Z,95.47
2022-12-15T08:12:48.387Z,134.90
2022-12-15T08:17:50.832Z,132.93
2022-12-15T08:22:53.182Z,102.43
2022-12-15T08:27:56.195Z,88.17
2022-12-15T08:32:58.589Z,80.53
2022-12-15T08:38:05.418Z,104.90
2022-12-15T08:43:08.366Z,106.63
2022-12-15T08:48:10.760Z,111.70
2022-12-15T08:53:30.891Z,104.13
2022-12-15T08:58:37.145Z,90.80
2022-12-15T09:03:40.770Z,99.47
2022-12-15T09:08:43.330Z,122.87
2022-12-15T09:13:45.730Z,115.27
2022-12-15T09:18:50.675Z,89.97
2022-12-15T09:23:55.350Z,97.87
2022-12-15T09:28:57.896Z,92.80
2022-12-15T09:34:01.224Z,120.60
2022-12-15T09:39:03.774Z,90.50
2022-12-15T09:44:19.203Z,102.67
2022-12-15T09:49:50.571Z,87.27
2022-12-15T09:54:54.091Z,94.10
2022-12-15T10:00:16.045Z,83.97
2022-12-15T10:06:15.470Z,85.73
2022-12-15T10:11:14.341Z,76.50
2022-12-15T10:16:41.296Z,77.87
2022-12-15T10:21:43.684Z,75.23
2022-12-15T10:27:13.580Z,76.23
2022-12-15T10:32:20.204Z,70.97
2022-12-15T10:37:24.341Z,75.67
2022-12-15T10:42:27.592Z,86.47
2022-12-15T10:47:31.587Z,85.67
2022-12-15T10:52:37.462Z,83.70
2022-12-15T10:57:58.929Z,76.83
2022-12-15T11:03:01.613Z,75.00
2022-12-15T11:08:16.783Z,73.47
2022-12-15T11:13:21.872Z,69.47
2022-12-15T11:18:32.541Z,112.67
2022-12-15T11:23:50.448Z,76.13
2022-12-15T11:29:13.448Z,60.97
2022-12-15T11:34:19.764Z,58.23
2022-12-15T11:39:57.195Z,63.77
2022-12-15T11:45:36.681Z,50.23
2022-12-15T11:51:10.068Z,51.70
2022-12-15T11:56:18.297Z,55.70
2022-12-15T12:01:24.429Z,51.00
2022-12-15T12:06:51.798Z,54.57
2022-12-15T12:12:26.178Z,55.47
2022-12-15T12:17:48.902Z,47.73
2022-12-15T12:23:02.863Z,45.27
2022-12-15T12:28:21.889Z,43.20
2022-12-15T12:33:45.418Z,38.70
2022-12-15T12:38:56.262Z,45.13
2022-12-15T12:44:04.166Z,57.67
2022-12-15T12:49:30.511Z,47.90
2022-12-15T12:54:32.839Z,57.83
2022-12-15T12:59:42.590Z,40.17
2022-12-15T13:05:00.967Z,49.93
2022-12-15T13:10:09.786Z,43.67
2022-12-15T13:15:14.513Z,37.50
2022-12-15T13:20:23.707Z,48.30
2022-12-15T13:25:38.883Z,33.77
2022-12-15T13:31:16.718Z,32.87
2022-12-15T13:36:37.831Z,32.77
2022-12-15T13:47:28.020Z,34.80
2022-12-15T13:53:08.489Z,33.87
2022-12-15T13:58:16.114Z,30.80
2022-12-15T14:03:18.577Z,33.73
2022-12-15T14:08:23.556Z,39.37
2022-12-15T14:13:30.856Z,47.20
2022-12-15T14:18:35.794Z,51.53
2022-12-15T14:24:11.012Z,39.07
2022-12-15T14:29:06.526Z,48.23
2022-12-15T14:34:33.822Z,52.00
2022-12-15T14:39:45.231Z,49.50
2022-12-15T14:44:52.068Z,45.40
2022-12-15T14:50:01.149Z,46.23
2022-12-15T14:55:25.112Z,56.30
2022-12-15T15:00:27.471Z,75.07
2022-12-15T15:05:33.179Z,61.27
2022-12-15T15:10:35.739Z,52.43
2022-12-15T15:15:38.553Z,54.10
2022-12-15T15:20:41.194Z,50.80
2022-12-15T15:25:57.092Z,63.73
2022-12-15T15:31:05.421Z,41.60
2022-12-15T15:36:10.869Z,59.67
2022-12-15T15:41:19.512Z,55.10
2022-12-15T15:46:25.714Z,52.70
2022-12-15T15:51:30.129Z,49.37
2022-12-15T15:56:35.347Z,59.63
2022-12-15T16:01:37.892Z,61.10
2022-12-15T16:06:46.737Z,72.10
2022-12-15T16:11:51.064Z,67.70
2022-12-15T16:16:54.718Z,65.10
2022-12-15T16:21:57.187Z,82.33
2022-12-15T16:26:59.585Z,63.20
2022-12-15T16:32:01.935Z,73.10
2022-12-15T16:37:04.783Z,61.30
2022-12-15T16:42:11.838Z,51.23
2022-12-15T16:47:14.335Z,72.37
2022-12-15T16:52:21.444Z,46.10
2022-12-15T16:57:23.823Z,45.97
2022-12-15T17:02:29.751Z,51.27
2022-12-15T17:07:32.441Z,71.37
2022-12-15T17:12:37.718Z,66.93
2022-12-15T17:17:40.526Z,68.93
2022-12-15T17:22:44.534Z,64.13
2022-12-15T17:27:49.247Z,66.67
2022-12-15T17:32:51.703Z,70.47
2022-12-15T17:37:54.111Z,72.17
2022-12-15T17:42:56.520Z,98.70
2022-12-15T17:47:58.917Z,95.73
2022-12-15T17:53:03.157Z,99.77
2022-12-15T17:58:22.748Z,97.70
2022-12-15T18:03:25.386Z,116.63
2022-12-15T18:08:28.600Z,106.77
2022-12-15T18:13:35.583Z,141.93
2022-12-15T18:19:10.048Z,157.30
2022-12-15T18:24:15.517Z,171.83
2022-12-15T18:29:18.392Z,229.70
2022-12-15T18:34:21.453Z,161.93
2022-12-15T18:39:24.293Z,146.83
2022-12-15T18:44:31.014Z,158.40
2022-12-15T18:49:33.378Z,174.23
2022-12-15T18:54:36.072Z,196.23
2022-12-15T18:59:38.434Z,201.60
2022-12-15T19:04:41.221Z,210.77
2022-12-15T19:09:43.728Z,218.27
2022-12-15T19:14:49.262Z,219.73
2022-12-15T19:20:10.232Z,211.60
2022-12-15T19:25:25.754Z,188.97
2022-12-15T19:30:37.096Z,270.57
2022-12-15T19:35:46.686Z,262.83
2022-12-15T19:40:53.294Z,280.07
2022-12-15T19:45:55.905Z,216.53
2022-12-15T19:50:58.363Z,161.57
2022-12-15T19:56:01.607Z,161.47
2022-12-15T20:01:10.862Z,160.70
2022-12-15T20:06:17.349Z,154.20
2022-12-15T20:11:22.699Z,137.17
2022-12-15T20:16:25.819Z,167.77
2022-12-15T20:21:33.164Z,178.93
2022-12-15T20:26:37.806Z,187.33
2022-12-15T20:31:40.224Z,193.20
2022-12-15T20:36:42.854Z,176.33
2022-12-15T20:41:45.267Z,175.63
2022-12-15T20:46:47.659Z,188.70
2022-12-15T20:51:50.920Z,180.97
2022-12-15T20:56:53.579Z,195.57
2022-12-15T21:01:56.239Z,147.27
2022-12-15T21:06:58.815Z,138.37
2022-12-15T21:12:07.351Z,130.17
2022-12-15T21:17:19.033Z,166.93
2022-12-15T21:22:24.192Z,159.43
2022-12-15T21:27:29.248Z,196.27
2022-12-15T21:32:31.665Z,185.03
2022-12-15T21:37:34.124Z,199.37
2022-12-15T21:42:36.884Z,166.17
2022-12-15T21:47:57.672Z,151.43
2022-12-15T21:53:01.382Z,129.10
2022-12-15T21:58:19.828Z,117.10
2022-12-15T22:03:22.505Z,118.03
2022-12-15T22:08:25.045Z,94.73
2022-12-15T22:13:27.550Z,82.83
2022-12-15T22:18:31.616Z,74.97
2022-12-15T22:23:34.570Z,93.47
2022-12-15T22:28:36.972Z,114.80
2022-12-15T22:33:39.419Z,117.30
2022-12-15T22:38:41.848Z,106.13
2022-12-15T22:43:46.509Z,88.10
2022-12-15T22:48:49.368Z,93.80
2022-12-15T22:53:52.888Z,92.43
2022-12-15T22:59:02.065Z,86.53
2022-12-15T23:04:05.647Z,90.20
2022-12-15T23:09:08.133Z,83.83
2022-12-15T23:14:16.345Z,90.10
2022-12-15T23:19:24.685Z,71.03
2022-12-15T23:24:27.559Z,69.63
2022-12-15T23:29:29.925Z,70.27
2022-12-15T23:34:32.350Z,66.83
2022-12-15T23:39:34.758Z,78.43
2022-12-15T23:44:37.518Z,69.60
2022-12-15T23:49:40.020Z,65.67
2022-12-15T23:54:42.406Z,63.77
2022-12-15T23:59:44.880Z,62.07
